Time;durP1;ratioP1;P1;durP2;ratioP2;P2;SDS_P1;SDS_P2;PMS_P1;PMS_P2;Temp;Humidity;BMP_temperature;BMP_pressure;BME280_temperature;BME280_humidity;BME280_pressure;Samples;Min_cycle;Max_cycle;Signal;HPM_P1;HPM_P2
2023/04/07 00:00:54;;;;;;;0.10;0.10;;;7.70;99.90;;;;;;6241436;23;20013;-76
2023/04/07 00:03:20;;;;;;;0.20;0.20;;;7.70;99.90;;;;;;6241744;23;20145;-75
2023/04/07 00:05:49;;;;;;;0.17;0.17;;;7.70;99.90;;;;;;6243192;23;20026;-76
2023/04/07 00:08:15;;;;;;;0.20;0.20;;;7.70;99.90;;;;;;6242891;23;20008;-75
2023/04/07 00:10:40;;;;;;;0.10;0.10;;;7.70;99.90;;;;;;6213911;23;20020;-75
2023/04/07 00:13:06;;;;;;;0.20;0.20;;;7.70;99.90;;;;;;6215516;23;20008;-75
2023/04/07 00:15:32;;;;;;;0.20;0.20;;;8.10;99.90;;;;;;6215174;23;20752;-75
2023/04/07 00:18:06;;;;;;;0.20;0.20;;;8.10;99.90;;;;;;6243878;23;20020;-76
2023/04/07 00:20:47;;;;;;;0.20;0.20;;;8.50;99.90;;;;;;6241932;23;20557;-75
2023/04/07 00:23:19;;;;;;;0.20;0.20;;;7.60;99.90;;;;;;6213758;23;20387;-75
2023/04/07 00:26:00;;;;;;;0.20;0.20;;;7.70;99.90;;;;;;6238943;23;20444;-76
2023/04/07 00:28:38;;;;;;;0.20;0.20;;;7.30;99.90;;;;;;6240712;23;20016;-75
2023/04/07 00:31:04;;;;;;;0.10;0.10;;;7.90;99.90;;;;;;6212114;23;20329;-76
2023/04/07 00:33:30;;;;;;;0.20;0.20;;;7.70;99.90;;;;;;6216214;23;20016;-75
2023/04/07 00:35:57;;;;;;;0.20;0.20;;;7.70;99.90;;;;;;6212776;23;20016;-75
2023/04/07 00:38:23;;;;;;;0.10;0.10;;;7.80;99.90;;;;;;6238509;23;20027;-76
2023/04/07 00:40:59;;;;;;;0.20;0.20;;;7.80;99.90;;;;;;6237616;23;20016;-76
2023/04/07 00:43:30;;;;;;;0.20;0.20;;;8.20;99.90;;;;;;6215121;23;20356;-75
2023/04/07 00:46:52;;;;;;;0.20;0.20;;;7.80;99.90;;;;;;6240646;23;20026;-76
2023/04/07 00:50:22;;;;;;;0.20;0.20;;;7.60;99.90;;;;;;6243501;23;20024;-76
2023/04/07 00:52:57;;;;;;;0.10;0.10;;;7.80;99.90;;;;;;6239309;23;20087;-76
2023/04/07 00:55:28;;;;;;;0.10;0.10;;;7.80;99.90;;;;;;6238123;23;20019;-75
2023/04/07 00:57:54;;;;;;;0.10;0.10;;;8.20;99.90;;;;;;6241988;23;20020;-76
2023/04/07 01:01:20;;;;;;;0.15;0.15;;;7.80;99.90;;;;;;6241147;23;20008;-75
2023/04/07 01:04:08;;;;;;;0.20;0.20;;;7.80;99.90;;;;;;6241262;23;20012;-76
2023/04/07 01:07:00;;;;;;;0.15;0.15;;;7.80;99.90;;;;;;6240293;23;20023;-75
2023/04/07 01:09:39;;;;;;;0.10;0.10;;;8.30;99.90;;;;;;6232134;23;20047;-76
2023/04/07 01:12:37;;;;;;;0.10;0.10;;;7.80;99.90;;;;;;6238628;23;20016;-75
2023/04/07 01:15:11;;;;;;;0.20;0.20;;;7.80;99.90;;;;;;6240337;23;20306;-75
2023/04/07 01:17:54;;;;;;;0.20;0.20;;;7.80;99.90;;;;;;6242441;23;20391;-75
2023/04/07 01:20:31;;;;;;;0.20;0.20;;;7.80;99.90;;;;;;6216464;23;20020;-75
2023/04/07 01:23:03;;;;;;;0.20;0.20;;;7.80;99.90;;;;;;6254419;23;20036;-76
2023/04/07 01:25:50;;;;;;;0.10;0.10;;;8.00;99.90;;;;;;6244586;23;20437;-75
2023/04/07 01:28:38;;;;;;;0.15;0.15;;;7.80;99.90;;;;;;6214518;23;20023;-76
2023/04/07 01:31:05;;;;;;;0.20;0.20;;;7.80;99.90;;;;;;6214187;23;20012;-75
2023/04/07 01:33:33;;;;;;;0.10;0.10;;;7.80;99.90;;;;;;6213668;23;20645;-75
2023/04/07 01:36:03;;;;;;;0.20;0.20;;;7.80;99.90;;;;;;6241952;23;20099;-74
2023/04/07 01:38:30;;;;;;;0.20;0.20;;;7.80;99.90;;;;;;6239157;23;20016;-74
2023/04/07 01:40:58;;;;;;;0.20;0.20;;;7.90;99.90;;;;;;6236814;23;20020;-74
2023/04/07 01:43:26;;;;;;;0.10;0.10;;;7.80;99.90;;;;;;6239332;23;20039;-74
2023/04/07 01:45:54;;;;;;;0.20;0.20;;;7.80;99.90;;;;;;6241718;23;20024;-74
2023/04/07 01:48:20;;;;;;;0.20;0.20;;;7.80;99.90;;;;;;6239026;23;20016;-74
2023/04/07 01:50:46;;;;;;;0.13;0.13;;;7.80;99.90;;;;;;6240182;22;20020;-74
2023/04/07 01:53:15;;;;;;;0.20;0.20;;;7.80;99.90;;;;;;6215074;23;20027;-74
2023/04/07 01:55:59;;;;;;;0.20;0.20;;;7.90;99.90;;;;;;6212443;23;20051;-75
2023/04/07 01:58:25;;;;;;;0.20;0.20;;;8.50;99.90;;;;;;6213015;23;20020;-74
2023/04/07 02:01:09;;;;;;;0.20;0.20;;;8.40;99.90;;;;;;6212396;23;20016;-74
2023/04/07 02:04:03;;;;;;;0.20;0.20;;;7.80;99.90;;;;;;6212639;23;20377;-74
2023/04/07 02:06:36;;;;;;;0.20;0.20;;;7.80;99.90;;;;;;6239311;23;20012;-74
2023/04/07 02:09:15;;;;;;;0.20;0.20;;;7.10;99.90;;;;;;6239789;23;20444;-74
2023/04/07 02:11:45;;;;;;;0.15;0.15;;;8.70;99.90;;;;;;6211035;23;20408;-74
2023/04/07 02:14:12;;;;;;;0.20;0.20;;;8.30;99.90;;;;;;6239164;23;20008;-74
2023/04/07 02:16:40;;;;;;;0.20;0.20;;;7.20;99.90;;;;;;6211350;23;20031;-74
2023/04/07 02:19:06;;;;;;;0.20;0.20;;;8.50;99.90;;;;;;6211232;23;20142;-75
2023/04/07 02:21:33;;;;;;;0.20;0.20;;;7.80;99.90;;;;;;6238295;23;20171;-75
2023/04/07 02:24:06;;;;;;;0.20;0.20;;;7.80;99.90;;;;;;6209844;23;20020;-75
2023/04/07 02:26:48;;;;;;;0.20;0.20;;;7.40;99.90;;;;;;6212160;23;20027;-75
2023/04/07 02:29:17;;;;;;;0.20;0.20;;;7.50;99.90;;;;;;6242381;23;20194;-75
2023/04/07 02:31:46;;;;;;;;;;;7.80;99.90;;;;;;6214191;23;20027;-74
2023/04/07 02:34:23;;;;;;;0.15;0.15;;;8.50;99.90;;;;;;6214676;23;19916;-75
2023/04/07 02:36:51;;;;;;;0.15;0.15;;;7.80;99.90;;;;;;6212380;23;20020;-75
2023/04/07 02:39:26;;;;;;;0.20;0.20;;;9.10;99.90;;;;;;6242577;23;20016;-74
2023/04/07 02:41:56;;;;;;;0.20;0.20;;;7.90;99.90;;;;;;6211204;22;20553;-75
2023/04/07 02:44:43;;;;;;;0.10;0.10;;;8.90;99.90;;;;;;6211023;23;20020;-74
2023/04/07 02:47:09;;;;;;;0.13;0.13;;;9.10;99.90;;;;;;6238224;23;20024;-75
2023/04/07 02:49:34;;;;;;;0.20;0.20;;;7.80;99.90;;;;;;6212384;23;20015;-74
2023/04/07 02:52:02;;;;;;;0.20;0.20;;;7.80;99.90;;;;;;6212455;23;20371;-75
2023/04/07 02:54:28;;;;;;;0.10;0.10;;;7.80;99.90;;;;;;6212314;23;20107;-75
2023/04/07 02:56:54;;;;;;;0.20;0.20;;;8.70;99.90;;;;;;6239558;23;20044;-75
2023/04/07 02:59:25;;;;;;;0.20;0.20;;;9.40;99.90;;;;;;6241031;23;20107;-75
2023/04/07 03:01:51;;;;;;;0.10;0.10;;;8.90;99.90;;;;;;6213253;23;20043;-75
2023/04/07 03:04:17;;;;;;;0.10;0.10;;;7.80;99.90;;;;;;6213942;23;20023;-75
2023/04/07 03:06:42;;;;;;;0.20;0.20;;;9.10;99.90;;;;;;6218405;23;20325;-74
2023/04/07 03:09:10;;;;;;;0.20;0.20;;;7.80;99.90;;;;;;6242192;23;20392;-74
2023/04/07 03:11:36;;;;;;;0.17;0.17;;;8.40;99.90;;;;;;6237823;23;20016;-75
2023/04/07 03:14:15;;;;;;;0.10;0.10;;;7.80;99.90;;;;;;6211688;23;20016;-75
2023/04/07 03:16:50;;;;;;;0.20;0.20;;;7.80;99.90;;;;;;6232411;22;20016;-75
2023/04/07 03:19:16;;;;;;;0.20;0.20;;;7.50;99.90;;;;;;6240097;23;20099;-74
2023/04/07 03:21:56;;;;;;;0.10;0.10;;;7.70;99.90;;;;;;6241374;23;20052;-75
2023/04/07 03:24:22;;;;;;;0.20;0.20;;;8.90;99.90;;;;;;6213379;23;20024;-76
2023/04/07 03:26:50;;;;;;;0.20;0.20;;;7.70;99.90;;;;;;6209597;23;20869;-75
2023/04/07 03:29:30;;;;;;;0.20;0.20;;;7.90;99.90;;;;;;6212589;23;20009;-75
2023/04/07 03:32:11;;;;;;;0.20;0.20;;;7.70;99.90;;;;;;6213965;23;20099;-75
2023/04/07 03:34:42;;;;;;;0.20;0.20;;;7.70;99.90;;;;;;6216356;23;20047;-75
2023/04/07 03:37:26;;;;;;;0.10;0.10;;;8.50;99.90;;;;;;6215825;23;20032;-75
2023/04/07 03:39:58;;;;;;;0.20;0.20;;;7.70;99.90;;;;;;6213069;23;20011;-75
2023/04/07 03:42:33;;;;;;;0.20;0.20;;;7.80;99.90;;;;;;6215449;23;20028;-76
2023/04/07 03:45:01;;;;;;;0.20;0.20;;;8.80;99.90;;;;;;6243575;23;20020;-75
2023/04/07 03:47:40;;;;;;;0.20;0.20;;;7.70;99.90;;;;;;6242480;23;20027;-75
2023/04/07 03:50:06;;;;;;;0.20;0.20;;;7.70;99.90;;;;;;6242467;23;20589;-75
2023/04/07 03:52:31;;;;;;;0.20;0.20;;;7.70;99.90;;;;;;6214791;23;20118;-75
2023/04/07 03:55:00;;;;;;;0.10;0.10;;;7.70;99.90;;;;;;6213912;23;20038;-75
2023/04/07 03:57:29;;;;;;;0.20;0.20;;;7.70;99.90;;;;;;6214671;23;20066;-75
2023/04/07 03:59:55;;;;;;;0.20;0.20;;;7.00;99.90;;;;;;6213736;23;20103;-75
2023/04/07 04:02:36;;;;;;;0.20;0.20;;;7.70;99.90;;;;;;6212225;23;20095;-75
2023/04/07 04:05:13;;;;;;;0.20;0.20;;;7.60;99.90;;;;;;6214671;23;20348;-75
2023/04/07 04:07:42;;;;;;;0.20;0.20;;;7.60;99.90;;;;;;6243405;23;20012;-75
2023/04/07 04:10:14;;;;;;;0.20;0.20;;;7.60;99.90;;;;;;6213170;23;20095;-76
2023/04/07 04:12:40;;;;;;;0.20;0.20;;;7.70;99.90;;;;;;6212840;23;20220;-75
2023/04/07 04:15:15;;;;;;;0.13;0.13;;;7.70;99.90;;;;;;6213563;23;20460;-75
2023/04/07 04:17:44;;;;;;;0.20;0.20;;;7.60;99.90;;;;;;6208004;23;20046;-76
2023/04/07 04:20:12;;;;;;;;;;;7.60;99.90;;;;;;6210618;23;20056;-75
2023/04/07 04:22:44;;;;;;;0.20;0.20;;;7.70;99.90;;;;;;6208632;23;19923;-76
2023/04/07 04:30:47;;;;;;;0.20;0.20;;;6.80;99.90;;;;;;6212362;22;20027;-76
2023/04/07 04:33:16;;;;;;;0.20;0.20;;;7.70;99.90;;;;;;6211915;23;20052;-75
2023/04/07 04:35:41;;;;;;;0.10;0.10;;;8.30;99.90;;;;;;6181733;23;20024;-75
2023/04/07 04:38:22;;;;;;;0.10;0.10;;;8.30;99.90;;;;;;6182270;23;20348;-76
2023/04/07 04:40:47;;;;;;;0.20;0.20;;;8.00;99.90;;;;;;6181093;23;20020;-75
2023/04/07 04:43:16;;;;;;;0.20;0.20;;;8.50;99.90;;;;;;6210094;23;20023;-75
2023/04/07 04:45:43;;;;;;;0.10;0.10;;;8.40;99.90;;;;;;6183798;23;20020;-76
2023/04/07 04:51:56;;;;;;;0.20;0.20;;;6.80;99.90;;;;;;6215641;23;20036;-75
2023/04/07 04:54:22;;;;;;;0.17;0.17;;;7.60;99.90;;;;;;6193109;23;20025;-75
2023/04/07 04:56:51;;;;;;;0.10;0.10;;;7.60;99.90;;;;;;6184466;23;20078;-75
2023/04/07 04:59:28;;;;;;;0.20;0.20;;;7.00;99.90;;;;;;6186723;23;20115;-75
2023/04/07 05:01:54;;;;;;;0.20;0.20;;;8.30;99.90;;;;;;6181862;23;20052;-75
2023/04/07 05:04:20;;;;;;;0.20;0.20;;;7.60;99.90;;;;;;6209913;23;20044;-75
2023/04/07 05:06:58;;;;;;;0.20;0.20;;;7.60;99.90;;;;;;6182037;23;20374;-75
2023/04/07 05:09:33;;;;;;;0.20;0.20;;;7.80;99.90;;;;;;6183901;23;20048;-75
2023/04/07 05:11:59;;;;;;;0.10;0.10;;;7.60;99.90;;;;;;6182486;23;20031;-75
2023/04/07 05:14:25;;;;;;;0.20;0.20;;;7.70;99.90;;;;;;6184014;23;20400;-75
2023/04/07 05:16:57;;;;;;;0.10;0.10;;;7.60;99.90;;;;;;6185531;23;20021;-75
2023/04/07 05:19:23;;;;;;;0.10;0.10;;;7.60;99.90;;;;;;6211682;23;20029;-75
2023/04/07 05:21:52;;;;;;;0.20;0.20;;;7.60;99.90;;;;;;6208531;23;20019;-75
2023/04/07 05:24:21;;;;;;;0.20;0.20;;;7.60;99.90;;;;;;6149821;22;20015;-74
2023/04/07 05:26:46;;;;;;;0.17;0.17;;;7.60;99.90;;;;;;6239769;22;20035;-74
2023/04/07 05:29:12;;;;;;;0.10;0.10;;;7.60;99.90;;;;;;6242113;22;20028;-74
2023/04/07 05:31:39;;;;;;;0.20;0.20;;;7.50;99.90;;;;;;6241111;22;20019;-75
2023/04/07 05:34:05;;;;;;;0.13;0.13;;;8.30;99.90;;;;;;6269921;22;20019;-75
2023/04/07 05:36:32;;;;;;;0.20;0.20;;;8.40;99.90;;;;;;6243688;22;20077;-74
2023/04/07 05:39:04;;;;;;;0.20;0.20;;;7.60;99.90;;;;;;6207297;23;20100;-74
2023/04/07 05:41:30;;;;;;;0.20;0.20;;;7.60;99.90;;;;;;6179560;23;20068;-74
2023/04/07 05:43:56;;;;;;;0.20;0.20;;;8.10;99.90;;;;;;6204892;23;20388;-75
2023/04/07 05:46:33;;;;;;;0.20;0.20;;;7.60;99.90;;;;;;6204073;23;20311;-74
2023/04/07 05:49:06;;;;;;;0.13;0.13;;;7.60;99.90;;;;;;6180664;23;20021;-75
2023/04/07 05:51:32;;;;;;;0.10;0.10;;;6.60;99.90;;;;;;6208697;23;20488;-74
2023/04/07 05:54:14;;;;;;;0.20;0.20;;;7.60;99.90;;;;;;6204879;23;20024;-74
2023/04/07 05:56:40;;;;;;;0.13;0.13;;;7.60;99.90;;;;;;6205200;23;20342;-73
2023/04/07 05:59:05;;;;;;;0.10;0.10;;;7.10;99.90;;;;;;6207636;23;20051;-74
2023/04/07 06:01:40;;;;;;;0.20;0.20;;;8.20;99.90;;;;;;6204472;23;20020;-74
2023/04/07 06:04:12;;;;;;;0.20;0.20;;;7.60;99.90;;;;;;6183735;23;20020;-74
2023/04/07 06:06:37;;;;;;;0.20;0.20;;;7.60;99.90;;;;;;6208657;23;20159;-75
2023/04/07 06:09:15;;;;;;;0.20;0.20;;;7.60;99.90;;;;;;6179145;23;20207;-75
2023/04/07 06:11:56;;;;;;;0.13;0.13;;;8.00;99.90;;;;;;6180149;23;20021;-75
2023/04/07 06:14:22;;;;;;;0.20;0.20;;;7.30;99.90;;;;;;6207787;23;20025;-75
2023/04/07 06:16:48;;;;;;;0.20;0.20;;;7.70;99.90;;;;;;6231978;22;20022;-75
2023/04/07 06:19:18;;;;;;;0.13;0.13;;;7.80;99.90;;;;;;6269621;22;20024;-75
2023/04/07 06:21:44;;;;;;;0.20;0.20;;;7.80;99.90;;;;;;6241694;22;20509;-75
2023/04/07 06:24:16;;;;;;;0.20;0.20;;;8.10;99.90;;;;;;6268254;22;20032;-75
2023/04/07 06:26:43;;;;;;;0.20;0.20;;;8.50;99.90;;;;;;6242516;22;20053;-75
2023/04/07 06:29:35;;;;;;;0.13;0.13;;;7.70;99.90;;;;;;6245457;22;20054;-76
2023/04/07 06:32:09;;;;;;;0.10;0.10;;;7.70;99.90;;;;;;6243752;22;20027;-76
2023/04/07 06:34:41;;;;;;;0.20;0.20;;;7.80;99.90;;;;;;6246206;22;20127;-77
2023/04/07 06:37:09;;;;;;;0.10;0.10;;;7.80;99.90;;;;;;6246431;22;20073;-76
2023/04/07 06:39:37;;;;;;;0.10;0.10;;;8.70;99.90;;;;;;6253748;22;20031;-76
2023/04/07 06:42:02;;;;;;;0.20;0.20;;;7.90;99.90;;;;;;6272618;22;20026;-76
2023/04/07 06:44:28;;;;;;;0.20;0.20;;;7.90;99.90;;;;;;6243173;22;20020;-76
2023/04/07 06:47:07;;;;;;;;;;;;;;;;;;;;;
2023/04/07 06:49:40;;;;;;;0.20;0.20;;;8.60;99.90;;;;;;6177687;23;20088;-76
2023/04/07 06:52:12;;;;;;;0.20;0.20;;;8.00;99.90;;;;;;6227320;22;20047;-76
2023/04/07 06:54:37;;;;;;;0.20;0.20;;;8.00;99.90;;;;;;6272734;22;20011;-76
2023/04/07 06:57:19;;;;;;;0.20;0.20;;;8.00;99.90;;;;;;6242370;22;20043;-76
2023/04/07 07:00:14;;;;;;;0.20;0.20;;;8.00;99.90;;;;;;6273327;22;20384;-76
2023/04/07 07:02:49;;;;;;;0.20;0.20;;;8.10;99.90;;;;;;6259926;22;20020;-76
2023/04/07 07:05:15;;;;;;;0.15;0.15;;;8.10;99.90;;;;;;6228194;22;20012;-75
2023/04/07 07:07:53;;;;;;;0.20;0.20;;;8.20;99.90;;;;;;6215952;23;20027;-75
2023/04/07 07:10:25;;;;;;;0.20;0.20;;;8.20;99.90;;;;;;6240402;23;20012;-75
2023/04/07 07:12:51;;;;;;;0.10;0.10;;;8.60;99.90;;;;;;6215402;23;20023;-75
2023/04/07 07:15:17;;;;;;;0.20;0.20;;;8.30;99.90;;;;;;6242046;23;20099;-75
2023/04/07 07:17:43;;;;;;;0.10;0.10;;;8.30;99.90;;;;;;6214275;23;20024;-75
2023/04/07 07:20:24;;;;;;;0.13;0.13;;;9.10;99.90;;;;;;6241925;23;20079;-75
2023/04/07 07:22:50;;;;;;;;;;;8.50;99.90;;;;;;6242169;23;20519;-76
2023/04/07 07:25:33;;;;;;;0.20;0.20;;;8.50;99.90;;;;;;6212453;23;20009;-75
2023/04/07 07:28:01;;;;;;;0.10;0.10;;;8.60;99.90;;;;;;6215365;23;20020;-75
2023/04/07 07:30:30;;;;;;;0.17;0.17;;;8.70;99.90;;;;;;6241950;23;20012;-75
2023/04/07 07:33:05;;;;;;;0.20;0.20;;;8.70;99.90;;;;;;6240978;23;20026;-75
2023/04/07 07:35:36;;;;;;;0.20;0.20;;;8.80;99.90;;;;;;6240793;23;20016;-75
2023/04/07 07:38:02;;;;;;;0.20;0.20;;;8.80;99.90;;;;;;6240813;23;20020;-75
2023/04/07 07:40:33;;;;;;;0.10;0.10;;;8.80;99.90;;;;;;6240585;23;20239;-75
2023/04/07 07:42:59;;;;;;;0.20;0.20;;;8.90;99.90;;;;;;6229558;23;20058;-75
2023/04/07 07:45:28;;;;;;;0.20;0.20;;;8.90;99.90;;;;;;6241982;23;20012;-75
2023/04/07 07:48:03;;;;;;;0.10;0.10;;;9.60;99.90;;;;;;6242584;23;20027;-75
2023/04/07 07:50:29;;;;;;;0.10;0.10;;;8.70;99.90;;;;;;6241403;23;20020;-76
2023/04/07 07:52:54;;;;;;;0.20;0.20;;;9.10;99.90;;;;;;6214597;23;20035;-77
2023/04/07 07:55:35;;;;;;;0.20;0.20;;;9.50;99.90;;;;;;6214131;23;20539;-76
2023/04/07 07:58:06;;;;;;;0.20;0.20;;;8.80;99.90;;;;;;6215172;23;20103;-76
2023/04/07 08:00:32;;;;;;;;;;;9.20;99.90;;;;;;6242182;23;20387;-76
2023/04/07 08:02:58;;;;;;;0.20;0.20;;;9.20;99.90;;;;;;6214885;23;19920;-75
2023/04/07 08:05:24;;;;;;;0.20;0.20;;;9.20;99.90;;;;;;6241284;23;20405;-75
2023/04/07 08:07:51;;;;;;;0.20;0.20;;;9.20;99.90;;;;;;6214733;23;20024;-76
2023/04/07 08:10:29;;;;;;;0.20;0.20;;;9.20;99.90;;;;;;6241720;23;20078;-76
2023/04/07 08:13:09;;;;;;;0.20;0.20;;;9.20;99.90;;;;;;6216757;23;20027;-75
2023/04/07 08:15:39;;;;;;;0.10;0.10;;;9.10;99.90;;;;;;6216685;23;20031;-76
2023/04/07 08:18:05;;;;;;;0.20;0.20;;;9.50;99.90;;;;;;6217874;23;20133;-75
2023/04/07 08:20:32;;;;;;;0.17;0.17;;;9.10;99.90;;;;;;6245144;23;20023;-74
2023/04/07 08:23:08;;;;;;;0.10;0.10;;;9.10;99.90;;;;;;6218027;23;20358;-75
2023/04/07 08:25:52;;;;;;;0.20;0.20;;;9.40;99.90;;;;;;6222288;23;20297;-74
2023/04/07 08:28:18;;;;;;;0.10;0.10;;;8.80;99.90;;;;;;6246269;23;20464;-75
2023/04/07 08:30:43;;;;;;;0.20;0.20;;;9.20;99.90;;;;;;6216869;23;20027;-76
2023/04/07 08:33:15;;;;;;;0.20;0.20;;;9.50;99.90;;;;;;6216433;23;20017;-75
2023/04/07 08:35:41;;;;;;;0.20;0.20;;;9.30;99.90;;;;;;6242666;23;20024;-75
2023/04/07 08:38:08;;;;;;;0.10;0.10;;;9.40;99.90;;;;;;6243307;23;20070;-75
2023/04/07 08:40:37;;;;;;;0.13;0.13;;;9.40;99.90;;;;;;6215180;23;20535;-76
2023/04/07 08:43:08;;;;;;;0.10;0.10;;;9.50;99.90;;;;;;6214882;23;20448;-75
2023/04/07 08:45:55;;;;;;;0.20;0.20;;;9.10;99.90;;;;;;6240153;22;20392;-75
2023/04/07 08:48:26;;;;;;;0.20;0.20;;;9.60;99.90;;;;;;6241208;23;20016;-76
2023/04/07 08:51:09;;;;;;;0.20;0.20;;;9.70;99.90;;;;;;6241909;22;20406;-75
2023/04/07 08:53:49;;;;;;;0.10;0.10;;;9.70;99.90;;;;;;6241217;23;20409;-77
2023/04/07 08:56:20;;;;;;;0.10;0.10;;;10.10;99.90;;;;;;6241950;22;20016;-76
2023/04/07 08:58:58;;;;;;;0.15;0.15;;;9.90;99.90;;;;;;6244077;22;20016;-76
2023/04/07 09:01:36;;;;;;;0.17;0.17;;;10.00;99.90;;;;;;6241871;23;20020;-76
2023/04/07 09:04:12;;;;;;;0.20;0.20;;;10.10;99.90;;;;;;6240748;23;20396;-76
2023/04/07 09:06:46;;;;;;;0.10;0.10;;;10.20;99.90;;;;;;6243864;22;20066;-75
2023/04/07 09:09:12;;;;;;;0.20;0.20;;;10.70;99.90;;;;;;6242212;23;20028;-75
2023/04/07 09:11:39;;;;;;;0.10;0.10;;;10.30;99.90;;;;;;6239427;23;20314;-76
2023/04/07 09:14:12;;;;;;;0.20;0.20;;;10.30;99.90;;;;;;6241475;23;20027;-76
2023/04/07 09:16:53;;;;;;;0.20;0.20;;;10.40;99.90;;;;;;6243638;22;20063;-76
2023/04/07 09:19:19;;;;;;;0.20;0.20;;;10.40;99.90;;;;;;6242019;23;20008;-75
2023/04/07 09:22:01;;;;;;;0.15;0.15;;;10.50;99.90;;;;;;6242917;22;20020;-76
2023/04/07 09:24:30;;;;;;;0.10;0.10;;;10.60;99.90;;;;;;6242733;22;20467;-75
2023/04/07 09:27:29;;;;;;;0.17;0.17;;;10.60;99.90;;;;;;6240448;23;20038;-75
2023/04/07 09:30:19;;;;;;;0.10;0.10;;;10.80;99.90;;;;;;6241707;23;20016;-75
2023/04/07 09:32:50;;;;;;;0.17;0.17;;;10.70;99.90;;;;;;6240793;23;20016;-75
2023/04/07 09:35:23;;;;;;;0.20;0.20;;;10.70;99.90;;;;;;6241967;22;20091;-75
2023/04/07 09:38:16;;;;;;;0.20;0.20;;;10.80;99.90;;;;;;6242970;22;20382;-76
2023/04/07 09:40:51;;;;;;;0.20;0.20;;;11.10;99.90;;;;;;6241019;22;20506;-75
2023/04/07 09:43:28;;;;;;;0.10;0.10;;;11.30;99.90;;;;;;6243551;22;20091;-76
2023/04/07 09:46:07;;;;;;;0.13;0.13;;;11.10;99.90;;;;;;6239328;23;20024;-76
2023/04/07 09:48:33;;;;;;;0.20;0.20;;;11.20;99.90;;;;;;6210116;23;20083;-76
2023/04/07 09:51:10;;;;;;;0.13;0.13;;;11.30;99.90;;;;;;6210185;23;20377;-75
2023/04/07 09:53:50;;;;;;;0.10;0.10;;;11.30;99.90;;;;;;6212720;23;20017;-76
2023/04/07 09:56:17;;;;;;;0.15;0.15;;;11.40;99.90;;;;;;6211631;23;20025;-75
2023/04/07 09:58:56;;;;;;;0.10;0.10;;;11.50;99.90;;;;;;6211936;23;20021;-75
2023/04/07 10:01:31;;;;;;;0.10;0.10;;;11.70;99.90;;;;;;6210101;23;20649;-75
2023/04/07 10:03:58;;;;;;;0.15;0.15;;;11.70;99.90;;;;;;6213607;23;20337;-75
2023/04/07 10:06:24;;;;;;;0.20;0.20;;;11.80;99.90;;;;;;6210365;23;20028;-75
2023/04/07 10:08:51;;;;;;;0.15;0.15;;;11.80;99.90;;;;;;6214222;23;20009;-75
2023/04/07 10:11:27;;;;;;;0.20;0.20;;;11.80;99.90;;;;;;6214379;23;20020;-75
2023/04/07 10:14:05;;;;;;;0.13;0.13;;;12.50;99.90;;;;;;6214399;23;20128;-75
2023/04/07 10:16:42;;;;;;;0.20;0.20;;;12.10;99.90;;;;;;6213045;23;20088;-73
2023/04/07 10:19:08;;;;;;;0.20;0.20;;;12.00;99.90;;;;;;6211626;23;20016;-75
2023/04/07 10:21:39;;;;;;;0.20;0.20;;;12.00;99.90;;;;;;6211800;23;20079;-75
2023/04/07 10:24:18;;;;;;;0.20;0.20;;;12.10;99.90;;;;;;6213078;23;20023;-75
2023/04/07 10:27:07;;;;;;;0.20;0.20;;;12.00;99.90;;;;;;6208762;23;20051;-75
2023/04/07 10:29:40;;;;;;;0.20;0.20;;;12.10;99.90;;;;;;6211845;23;20391;-75
2023/04/07 10:32:07;;;;;;;0.10;0.10;;;12.10;99.90;;;;;;6210060;23;20026;-76
2023/04/07 10:34:53;;;;;;;0.20;0.20;;;12.10;99.90;;;;;;6209283;23;20024;-76
2023/04/07 10:37:21;;;;;;;0.20;0.20;;;12.20;99.90;;;;;;6210154;23;20016;-76
2023/04/07 10:40:25;;;;;;;0.13;0.13;;;12.30;99.90;;;;;;6259377;22;20094;-76
2023/04/07 10:42:58;;;;;;;0.20;0.20;;;12.30;99.90;;;;;;6245409;22;20043;-78
2023/04/07 10:45:48;;;;;;;0.10;0.10;;;12.30;99.90;;;;;;6245129;22;20098;-77
2023/04/07 10:48:18;;;;;;;0.20;0.20;;;12.40;99.90;;;;;;6246246;22;20387;-77
2023/04/07 10:50:45;;;;;;;0.20;0.20;;;12.50;99.90;;;;;;6273102;22;20091;-77
2023/04/07 10:53:15;;;;;;;0.20;0.20;;;12.50;99.90;;;;;;6273895;22;20018;-77
2023/04/07 10:55:43;;;;;;;0.20;0.20;;;12.70;99.90;;;;;;6271069;22;20435;-77
2023/04/07 10:58:32;;;;;;;0.10;0.10;;;12.70;99.90;;;;;;6272383;22;20444;-78
2023/04/07 11:01:06;;;;;;;0.17;0.17;;;12.80;99.90;;;;;;6245320;22;20043;-77
2023/04/07 11:03:33;;;;;;;0.20;0.20;;;12.80;99.90;;;;;;6245538;22;20065;-76
2023/04/07 11:06:17;;;;;;;0.10;0.10;;;12.70;99.90;;;;;;6243953;22;20019;-78
2023/04/07 11:08:47;;;;;;;0.20;0.20;;;12.60;99.90;;;;;;6242695;22;20359;-75
2023/04/07 11:11:17;;;;;;;0.20;0.20;;;12.70;99.90;;;;;;6266935;22;20016;-77
2023/04/07 11:13:48;;;;;;;0.20;0.20;;;12.70;99.90;;;;;;6270882;22;20024;-77
2023/04/07 11:16:15;;;;;;;0.10;0.10;;;12.80;99.90;;;;;;6245141;22;20011;-77
2023/04/07 11:18:42;;;;;;;0.20;0.20;;;12.90;99.90;;;;;;6244439;22;20328;-78
2023/04/07 11:21:11;;;;;;;0.17;0.17;;;12.90;99.90;;;;;;6267202;22;20142;-77
2023/04/07 11:23:46;;;;;;;0.10;0.10;;;13.00;99.90;;;;;;6244627;22;20099;-77
2023/04/07 11:26:13;;;;;;;0.10;0.10;;;13.00;99.90;;;;;;6272428;22;20472;-77
2023/04/07 11:28:53;;;;;;;0.10;0.10;;;13.10;99.90;;;;;;6273284;22;20022;-77
2023/04/07 11:31:27;;;;;;;0.10;0.10;;;13.10;99.90;;;;;;6271694;22;20062;-77
2023/04/07 11:33:54;;;;;;;0.20;0.20;;;13.10;99.90;;;;;;6245631;22;20023;-76
2023/04/07 11:36:39;;;;;;;0.13;0.13;;;13.20;99.90;;;;;;6273554;22;20012;-77
2023/04/07 11:39:05;;;;;;;0.20;0.20;;;13.20;99.90;;;;;;6245533;22;20023;-76
2023/04/07 11:41:32;;;;;;;0.10;0.10;;;13.20;99.90;;;;;;6245975;22;20031;-76
2023/04/07 11:44:09;;;;;;;0.20;0.20;;;13.20;99.90;;;;;;6246540;22;20015;-76
2023/04/07 11:46:36;;;;;;;0.20;0.20;;;13.20;99.90;;;;;;6272910;22;20011;-77
2023/04/07 11:49:16;;;;;;;0.13;0.13;;;13.20;99.90;;;;;;6276332;22;20030;-76
2023/04/07 11:51:43;;;;;;;0.20;0.20;;;13.20;99.90;;;;;;6275123;22;20016;-76
2023/04/07 11:54:09;;;;;;;0.17;0.17;;;13.20;99.90;;;;;;6249613;22;20095;-76
2023/04/07 11:56:44;;;;;;;0.20;0.20;;;13.30;99.90;;;;;;6253097;22;20031;-76
2023/04/07 11:59:31;;;;;;;0.10;0.10;;;13.50;99.90;;;;;;6277910;22;20336;-77
2023/04/07 12:01:57;;;;;;;0.10;0.10;;;13.70;99.90;;;;;;6274046;22;20079;-77
2023/04/07 12:04:23;;;;;;;0.10;0.10;;;13.80;99.90;;;;;;6274688;22;20395;-76
2023/04/07 12:06:48;;;;;;;0.15;0.15;;;13.80;99.90;;;;;;6246098;22;20054;-76
2023/04/07 12:09:40;;;;;;;0.10;0.10;;;13.80;99.90;;;;;;6274548;22;20012;-76
2023/04/07 12:12:12;;;;;;;0.20;0.20;;;13.80;99.90;;;;;;6240005;22;20034;-77
2023/04/07 12:14:38;;;;;;;0.10;0.10;;;13.80;99.90;;;;;;6272835;22;20463;-77
2023/04/07 12:17:03;;;;;;;0.20;0.20;;;13.90;99.90;;;;;;6245956;22;20019;-77
2023/04/07 12:19:34;;;;;;;0.10;0.10;;;13.90;99.90;;;;;;6275317;22;20021;-77
2023/04/07 12:22:00;;;;;;;0.10;0.10;;;13.90;99.90;;;;;;6272989;22;20103;-77
2023/04/07 12:24:25;;;;;;;0.20;0.20;;;13.90;99.90;;;;;;6274232;22;20051;-77
2023/04/07 12:26:51;;;;;;;0.10;0.10;;;13.80;99.90;;;;;;6272538;22;20015;-77
2023/04/07 12:29:18;;;;;;;0.10;0.10;;;13.90;99.90;;;;;;6274017;22;20014;-77
2023/04/07 12:31:44;;;;;;;0.20;0.20;;;13.90;99.90;;;;;;6273574;22;20391;-76
2023/04/07 12:34:10;;;;;;;0.20;0.20;;;14.00;99.90;;;;;;6246530;22;20047;-76
2023/04/07 12:36:36;;;;;;;0.10;0.10;;;14.10;99.90;;;;;;6274062;22;20070;-75
2023/04/07 12:39:01;;;;;;;0.20;0.20;;;14.10;99.90;;;;;;6273862;22;20022;-75
2023/04/07 12:41:27;;;;;;;0.13;0.13;;;14.00;99.90;;;;;;6245448;22;20322;-75
2023/04/07 12:43:53;;;;;;;0.20;0.20;;;14.00;99.70;;;;;;6246412;22;20016;-75
2023/04/07 12:46:20;;;;;;;0.20;0.20;;;14.00;99.90;;;;;;6246937;22;20015;-75
2023/04/07 12:48:46;;;;;;;0.10;0.10;;;14.00;99.80;;;;;;6273802;22;20306;-75
2023/04/07 12:51:12;;;;;;;0.10;0.10;;;13.90;99.60;;;;;;6246703;22;20016;-75
2023/04/07 12:53:38;;;;;;;0.20;0.20;;;14.00;99.70;;;;;;6273935;22;20090;-75
2023/04/07 12:56:04;;;;;;;0.10;0.10;;;13.90;99.90;;;;;;6272566;22;20142;-74
2023/04/07 12:58:29;;;;;;;0.20;0.20;;;14.00;99.90;;;;;;6274159;22;20015;-75
2023/04/07 13:00:55;;;;;;;0.20;0.20;;;14.20;99.90;;;;;;6273212;22;20012;-75
2023/04/07 13:03:21;;;;;;;0.10;0.10;;;14.50;99.90;;;;;;6245165;22;20338;-75
2023/04/07 13:05:47;;;;;;;0.15;0.15;;;14.70;99.90;;;;;;6246448;22;20011;-75
2023/04/07 13:08:13;;;;;;;0.10;0.10;;;14.90;99.90;;;;;;6274349;22;20591;-75
2023/04/07 13:13:14;;;;;;;0.20;0.20;;;15.50;99.90;;;;;;6243298;23;20024;-75
2023/04/07 13:15:40;;;;;;;0.10;0.10;;;16.10;99.90;;;;;;6216836;23;20027;-76
2023/04/07 13:18:12;;;;;;;0.20;0.20;;;16.30;99.90;;;;;;6214945;23;20017;-75
2023/04/07 13:20:37;;;;;;;0.20;0.20;;;16.70;99.90;;;;;;6216976;23;20165;-75
2023/04/07 13:23:09;;;;;;;0.20;0.20;;;17.00;99.30;;;;;;6215538;23;20717;-75
2023/04/07 13:25:35;;;;;;;0.20;0.20;;;17.10;99.70;;;;;;6215285;23;20020;-75
2023/04/07 13:28:01;;;;;;;0.20;0.20;;;17.20;99.20;;;;;;6218111;22;20016;-74
2023/04/07 13:30:26;;;;;;;0.20;0.20;;;17.20;99.60;;;;;;6215690;23;20039;-74
2023/04/07 13:32:52;;;;;;;0.20;0.20;;;17.30;98.70;;;;;;6216059;23;20020;-74